sensor_id;sensor_type;location;lat;lon;timestamp;P1;durP1;ratioP1;P2;durP2;ratioP2
18657;SDS011;9458;50.942;5.074;2023-03-01T00:01:38;7.77;;;5.20;;
18657;SDS011;9458;50.942;5.074;2023-03-01T00:04:05;8.37;;;5.40;;
18657;SDS011;9458;50.942;5.074;2023-03-01T00:06:33;8.47;;;4.57;;
18657;SDS011;9458;50.942;5.074;2023-03-01T00:09:02;8.40;;;5.60;;
18657;SDS011;9458;50.942;5.074;2023-03-01T00:11:33;9.23;;;5.60;;
18657;SDS011;9458;50.942;5.074;2023-03-01T00:14:02;9.23;;;5.40;;
18657;SDS011;9458;50.942;5.074;2023-03-01T00:16:33;8.87;;;5.47;;
18657;SDS011;9458;50.942;5.074;2023-03-01T00:19:04;8.07;;;5.20;;
18657;SDS011;9458;50.942;5.074;2023-03-01T00:21:32;8.70;;;5.63;;
18657;SDS011;9458;50.942;5.074;2023-03-01T00:24:01;7.47;;;5.20;;
18657;SDS011;9458;50.942;5.074;2023-03-01T00:26:33;6.87;;;5.30;;
18657;SDS011;9458;50.942;5.074;2023-03-01T00:29:02;10.30;;;5.60;;
18657;SDS011;9458;50.942;5.074;2023-03-01T00:31:31;6.73;;;5.20;;
18657;SDS011;9458;50.942;5.074;2023-03-01T00:34:00;8.07;;;5.33;;
18657;SDS011;9458;50.942;5.074;2023-03-01T00:36:30;8.80;;;5.33;;
18657;SDS011;9458;50.942;5.074;2023-03-01T00:38:59;8.17;;;5.47;;
18657;SDS011;9458;50.942;5.074;2023-03-01T00:41:29;7.50;;;4.80;;
18657;SDS011;9458;50.942;5.074;2023-03-01T00:43:59;8.40;;;5.20;;
18657;SDS011;9458;50.942;5.074;2023-03-01T00:46:27;7.90;;;4.90;;
18657;SDS011;9458;50.942;5.074;2023-03-01T00:48:55;9.40;;;5.50;;
18657;SDS011;9458;50.942;5.074;2023-03-01T00:51:24;8.27;;;5.20;;
18657;SDS011;9458;50.942;5.074;2023-03-01T00:53:55;8.07;;;5.20;;
18657;SDS011;9458;50.942;5.074;2023-03-01T00:56:24;8.23;;;5.60;;
18657;SDS011;9458;50.942;5.074;2023-03-01T00:58:53;9.87;;;5.47;;
18657;SDS011;9458;50.942;5.074;2023-03-01T01:01:23;8.10;;;4.60;;
18657;SDS011;9458;50.942;5.074;2023-03-01T01:03:55;9.50;;;5.43;;
18657;SDS011;9458;50.942;5.074;2023-03-01T01:06:26;6.90;;;4.90;;
18657;SDS011;9458;50.942;5.074;2023-03-01T01:08:55;11.10;;;5.57;;
18657;SDS011;9458;50.942;5.074;2023-03-01T01:11:28;8.43;;;5.43;;
18657;SDS011;9458;50.942;5.074;2023-03-01T01:14:04;7.33;;;5.33;;
18657;SDS011;9458;50.942;5.074;2023-03-01T01:16:34;7.37;;;5.37;;
18657;SDS011;9458;50.942;5.074;2023-03-01T01:19:12;7.47;;;5.10;;
18657;SDS011;9458;50.942;5.074;2023-03-01T01:21:46;10.97;;;6.20;;
18657;SDS011;9458;50.942;5.074;2023-03-01T01:24:15;8.23;;;5.00;;
18657;SDS011;9458;50.942;5.074;2023-03-01T01:26:45;8.67;;;5.90;;
18657;SDS011;9458;50.942;5.074;2023-03-01T01:29:23;7.47;;;5.33;;
18657;SDS011;9458;50.942;5.074;2023-03-01T01:31:53;9.93;;;5.67;;
18657;SDS011;9458;50.942;5.074;2023-03-01T01:34:22;7.80;;;5.20;;
18657;SDS011;9458;50.942;5.074;2023-03-01T01:36:50;8.30;;;5.20;;
18657;SDS011;9458;50.942;5.074;2023-03-01T01:39:20;8.97;;;5.67;;
18657;SDS011;9458;50.942;5.074;2023-03-01T01:41:49;7.40;;;5.47;;
18657;SDS011;9458;50.942;5.074;2023-03-01T01:44:19;10.20;;;6.00;;
18657;SDS011;9458;50.942;5.074;2023-03-01T01:46:50;10.07;;;5.97;;
18657;SDS011;9458;50.942;5.074;2023-03-01T01:49:25;8.17;;;5.63;;
18657;SDS011;9458;50.942;5.074;2023-03-01T01:52:03;13.30;;;5.77;;
18657;SDS011;9458;50.942;5.074;2023-03-01T01:54:40;8.80;;;5.70;;
18657;SDS011;9458;50.942;5.074;2023-03-01T01:57:14;8.57;;;4.83;;
18657;SDS011;9458;50.942;5.074;2023-03-01T01:59:53;7.60;;;5.43;;
18657;SDS011;9458;50.942;5.074;2023-03-01T02:02:36;7.67;;;5.37;;
18657;SDS011;9458;50.942;5.074;2023-03-01T02:05:09;11.27;;;6.50;;
18657;SDS011;9458;50.942;5.074;2023-03-01T02:07:46;8.70;;;5.23;;
18657;SDS011;9458;50.942;5.074;2023-03-01T02:10:17;6.80;;;5.00;;
18657;SDS011;9458;50.942;5.074;2023-03-01T02:12:46;9.23;;;5.63;;
18657;SDS011;9458;50.942;5.074;2023-03-01T02:15:14;9.73;;;5.87;;
18657;SDS011;9458;50.942;5.074;2023-03-01T02:17:44;9.33;;;5.83;;
18657;SDS011;9458;50.942;5.074;2023-03-01T02:20:14;12.00;;;6.53;;
18657;SDS011;9458;50.942;5.074;2023-03-01T02:22:49;10.50;;;5.53;;
18657;SDS011;9458;50.942;5.074;2023-03-01T02:28:24;7.80;;;5.17;;
18657;SDS011;9458;50.942;5.074;2023-03-01T02:30:56;10.30;;;5.60;;
18657;SDS011;9458;50.942;5.074;2023-03-01T02:33:43;9.23;;;5.93;;
18657;SDS011;9458;50.942;5.074;2023-03-01T02:36:17;8.27;;;5.57;;
18657;SDS011;9458;50.942;5.074;2023-03-01T02:38:48;8.77;;;5.90;;
18657;SDS011;9458;50.942;5.074;2023-03-01T02:41:19;10.37;;;5.97;;
18657;SDS011;9458;50.942;5.074;2023-03-01T02:43:49;8.17;;;5.93;;
18657;SDS011;9458;50.942;5.074;2023-03-01T02:46:17;9.13;;;6.07;;
18657;SDS011;9458;50.942;5.074;2023-03-01T02:48:48;11.20;;;6.27;;
18657;SDS011;9458;50.942;5.074;2023-03-01T02:51:24;8.97;;;5.57;;
18657;SDS011;9458;50.942;5.074;2023-03-01T02:54:15;9.17;;;6.00;;
18657;SDS011;9458;50.942;5.074;2023-03-01T02:56:50;9.30;;;5.93;;
18657;SDS011;9458;50.942;5.074;2023-03-01T02:59:20;8.50;;;5.80;;
18657;SDS011;9458;50.942;5.074;2023-03-01T03:01:52;8.83;;;5.83;;
18657;SDS011;9458;50.942;5.074;2023-03-01T03:04:21;10.27;;;5.87;;
18657;SDS011;9458;50.942;5.074;2023-03-01T03:06:51;8.40;;;5.60;;
18657;SDS011;9458;50.942;5.074;2023-03-01T03:09:19;8.43;;;5.93;;
18657;SDS011;9458;50.942;5.074;2023-03-01T03:11:46;10.10;;;5.93;;
18657;SDS011;9458;50.942;5.074;2023-03-01T03:14:15;10.10;;;6.17;;
18657;SDS011;9458;50.942;5.074;2023-03-01T03:16:45;12.30;;;6.07;;
18657;SDS011;9458;50.942;5.074;2023-03-01T03:19:21;8.70;;;5.70;;
18657;SDS011;9458;50.942;5.074;2023-03-01T03:21:49;9.63;;;5.70;;
18657;SDS011;9458;50.942;5.074;2023-03-01T03:24:18;9.03;;;6.43;;
18657;SDS011;9458;50.942;5.074;2023-03-01T03:26:46;10.83;;;5.80;;
18657;SDS011;9458;50.942;5.074;2023-03-01T03:29:14;9.67;;;6.13;;
18657;SDS011;9458;50.942;5.074;2023-03-01T03:31:42;9.37;;;5.30;;
18657;SDS011;9458;50.942;5.074;2023-03-01T03:34:11;9.80;;;5.63;;
18657;SDS011;9458;50.942;5.074;2023-03-01T03:36:44;9.63;;;6.00;;
18657;SDS011;9458;50.942;5.074;2023-03-01T03:39:11;10.17;;;5.83;;
18657;SDS011;9458;50.942;5.074;2023-03-01T03:41:39;8.70;;;5.93;;
18657;SDS011;9458;50.942;5.074;2023-03-01T03:44:08;10.00;;;5.87;;
18657;SDS011;9458;50.942;5.074;2023-03-01T03:46:37;14.90;;;6.20;;
18657;SDS011;9458;50.942;5.074;2023-03-01T03:49:06;8.93;;;6.10;;
18657;SDS011;9458;50.942;5.074;2023-03-01T03:51:34;8.93;;;6.13;;
18657;SDS011;9458;50.942;5.074;2023-03-01T03:54:01;8.73;;;5.73;;
18657;SDS011;9458;50.942;5.074;2023-03-01T03:56:31;9.50;;;6.13;;
18657;SDS011;9458;50.942;5.074;2023-03-01T03:59:00;8.37;;;5.97;;
18657;SDS011;9458;50.942;5.074;2023-03-01T04:01:28;8.30;;;5.73;;
18657;SDS011;9458;50.942;5.074;2023-03-01T04:03:56;9.20;;;5.70;;
18657;SDS011;9458;50.942;5.074;2023-03-01T04:06:31;10.43;;;5.97;;
18657;SDS011;9458;50.942;5.074;2023-03-01T04:08:59;11.80;;;6.20;;
18657;SDS011;9458;50.942;5.074;2023-03-01T04:11:30;8.40;;;5.70;;
18657;SDS011;9458;50.942;5.074;2023-03-01T04:14:01;9.80;;;5.57;;
18657;SDS011;9458;50.942;5.074;2023-03-01T04:16:34;9.73;;;6.17;;
18657;SDS011;9458;50.942;5.074;2023-03-01T04:19:05;9.97;;;6.43;;
18657;SDS011;9458;50.942;5.074;2023-03-01T04:21:40;9.80;;;5.97;;
18657;SDS011;9458;50.942;5.074;2023-03-01T04:24:11;10.97;;;6.70;;
18657;SDS011;9458;50.942;5.074;2023-03-01T04:26:40;8.57;;;6.10;;
18657;SDS011;9458;50.942;5.074;2023-03-01T04:29:09;11.10;;;6.07;;
18657;SDS011;9458;50.942;5.074;2023-03-01T04:31:40;10.70;;;5.67;;
18657;SDS011;9458;50.942;5.074;2023-03-01T04:34:11;7.33;;;5.30;;
18657;SDS011;9458;50.942;5.074;2023-03-01T04:36:43;9.70;;;6.33;;
18657;SDS011;9458;50.942;5.074;2023-03-01T04:39:11;11.17;;;6.50;;
18657;SDS011;9458;50.942;5.074;2023-03-01T04:41:39;10.47;;;5.97;;
18657;SDS011;9458;50.942;5.074;2023-03-01T04:44:08;8.80;;;6.20;;
18657;SDS011;9458;50.942;5.074;2023-03-01T04:46:36;9.47;;;5.77;;
18657;SDS011;9458;50.942;5.074;2023-03-01T04:49:04;9.50;;;6.10;;
18657;SDS011;9458;50.942;5.074;2023-03-01T04:51:32;8.77;;;5.97;;
18657;SDS011;9458;50.942;5.074;2023-03-01T04:54:01;11.70;;;6.70;;
18657;SDS011;9458;50.942;5.074;2023-03-01T04:56:30;9.73;;;6.20;;
18657;SDS011;9458;50.942;5.074;2023-03-01T04:58:58;10.13;;;6.60;;
18657;SDS011;9458;50.942;5.074;2023-03-01T05:01:25;10.47;;;6.23;;
18657;SDS011;9458;50.942;5.074;2023-03-01T05:03:53;11.70;;;6.43;;
18657;SDS011;9458;50.942;5.074;2023-03-01T05:06:21;9.00;;;6.03;;
18657;SDS011;9458;50.942;5.074;2023-03-01T05:08:50;10.30;;;5.90;;
18657;SDS011;9458;50.942;5.074;2023-03-01T05:11:19;10.73;;;6.13;;
18657;SDS011;9458;50.942;5.074;2023-03-01T05:13:47;10.67;;;6.17;;
18657;SDS011;9458;50.942;5.074;2023-03-01T05:16:21;10.63;;;6.17;;
18657;SDS011;9458;50.942;5.074;2023-03-01T05:18:49;9.70;;;5.97;;
18657;SDS011;9458;50.942;5.074;2023-03-01T05:21:18;11.20;;;6.43;;
18657;SDS011;9458;50.942;5.074;2023-03-01T05:23:45;10.47;;;6.77;;
18657;SDS011;9458;50.942;5.074;2023-03-01T05:26:13;10.00;;;5.93;;
18657;SDS011;9458;50.942;5.074;2023-03-01T05:28:44;11.17;;;6.13;;
18657;SDS011;9458;50.942;5.074;2023-03-01T05:31:12;9.67;;;6.17;;
18657;SDS011;9458;50.942;5.074;2023-03-01T05:33:41;10.87;;;6.73;;
18657;SDS011;9458;50.942;5.074;2023-03-01T05:36:10;10.27;;;5.70;;
18657;SDS011;9458;50.942;5.074;2023-03-01T05:38:39;15.10;;;7.13;;
18657;SDS011;9458;50.942;5.074;2023-03-01T05:41:12;9.80;;;6.23;;
18657;SDS011;9458;50.942;5.074;2023-03-01T05:43:42;10.57;;;6.13;;
18657;SDS011;9458;50.942;5.074;2023-03-01T05:46:11;9.83;;;6.13;;
18657;SDS011;9458;50.942;5.074;2023-03-01T05:48:41;10.73;;;6.47;;
18657;SDS011;9458;50.942;5.074;2023-03-01T05:51:10;9.70;;;6.33;;
18657;SDS011;9458;50.942;5.074;2023-03-01T05:53:38;9.57;;;6.17;;
18657;SDS011;9458;50.942;5.074;2023-03-01T05:56:06;9.17;;;5.97;;
18657;SDS011;9458;50.942;5.074;2023-03-01T05:58:34;12.20;;;7.17;;
18657;SDS011;9458;50.942;5.074;2023-03-01T06:01:04;9.20;;;6.27;;
18657;SDS011;9458;50.942;5.074;2023-03-01T06:03:33;10.67;;;6.17;;
18657;SDS011;9458;50.942;5.074;2023-03-01T06:06:01;12.73;;;6.87;;
18657;SDS011;9458;50.942;5.074;2023-03-01T06:08:28;11.00;;;6.23;;
18657;SDS011;9458;50.942;5.074;2023-03-01T06:10:56;8.73;;;5.93;;
18657;SDS011;9458;50.942;5.074;2023-03-01T06:13:24;10.37;;;6.20;;
18657;SDS011;9458;50.942;5.074;2023-03-01T06:15:51;12.00;;;6.60;;
18657;SDS011;9458;50.942;5.074;2023-03-01T06:18:20;9.20;;;6.40;;
18657;SDS011;9458;50.942;5.074;2023-03-01T06:20:53;9.30;;;6.20;;
18657;SDS011;9458;50.942;5.074;2023-03-01T06:23:22;9.17;;;6.20;;
18657;SDS011;9458;50.942;5.074;2023-03-01T06:25:51;9.80;;;6.33;;
18657;SDS011;9458;50.942;5.074;2023-03-01T06:28:19;9.87;;;6.10;;
18657;SDS011;9458;50.942;5.074;2023-03-01T06:30:46;12.67;;;6.97;;
18657;SDS011;9458;50.942;5.074;2023-03-01T06:33:15;10.17;;;6.67;;
18657;SDS011;9458;50.942;5.074;2023-03-01T06:35:45;11.17;;;6.37;;
18657;SDS011;9458;50.942;5.074;2023-03-01T06:38:14;11.77;;;6.80;;
18657;SDS011;9458;50.942;5.074;2023-03-01T06:40:44;11.97;;;6.90;;
18657;SDS011;9458;50.942;5.074;2023-03-01T06:43:18;10.53;;;6.10;;
18657;SDS011;9458;50.942;5.074;2023-03-01T06:45:45;15.10;;;6.93;;
18657;SDS011;9458;50.942;5.074;2023-03-01T06:48:13;10.80;;;6.80;;
18657;SDS011;9458;50.942;5.074;2023-03-01T06:50:40;12.23;;;7.00;;
18657;SDS011;9458;50.942;5.074;2023-03-01T06:53:09;11.93;;;6.63;;
18657;SDS011;9458;50.942;5.074;2023-03-01T06:55:37;16.53;;;7.07;;
18657;SDS011;9458;50.942;5.074;2023-03-01T06:58:06;14.30;;;7.80;;
18657;SDS011;9458;50.942;5.074;2023-03-01T07:00:33;12.67;;;8.47;;
18657;SDS011;9458;50.942;5.074;2023-03-01T07:03:08;18.83;;;9.43;;
18657;SDS011;9458;50.942;5.074;2023-03-01T07:05:48;18.30;;;10.50;;
18657;SDS011;9458;50.942;5.074;2023-03-01T07:08:26;15.83;;;9.13;;
18657;SDS011;9458;50.942;5.074;2023-03-01T07:10:58;13.20;;;8.10;;
18657;SDS011;9458;50.942;5.074;2023-03-01T07:13:37;9.77;;;7.23;;
18657;SDS011;9458;50.942;5.074;2023-03-01T07:16:05;8.23;;;6.90;;
18657;SDS011;9458;50.942;5.074;2023-03-01T07:18:34;9.98;;;7.00;;
18657;SDS011;9458;50.942;5.074;2023-03-01T07:21:04;9.20;;;7.15;;
18657;SDS011;9458;50.942;5.074;2023-03-01T07:23:33;9.48;;;7.18;;
18657;SDS011;9458;50.942;5.074;2023-03-01T07:26:03;12.65;;;7.57;;
18657;SDS011;9458;50.942;5.074;2023-03-01T07:28:30;11.57;;;7.80;;
18657;SDS011;9458;50.942;5.074;2023-03-01T07:31:02;9.02;;;7.25;;
18657;SDS011;9458;50.942;5.074;2023-03-01T07:33:30;9.57;;;7.70;;
18657;SDS011;9458;50.942;5.074;2023-03-01T07:36:02;10.80;;;8.10;;
18657;SDS011;9458;50.942;5.074;2023-03-01T07:38:31;9.95;;;8.15;;
18657;SDS011;9458;50.942;5.074;2023-03-01T07:40:59;9.75;;;8.40;;
18657;SDS011;9458;50.942;5.074;2023-03-01T07:43:31;13.45;;;8.43;;
18657;SDS011;9458;50.942;5.074;2023-03-01T07:45:59;12.00;;;10.15;;
18657;SDS011;9458;50.942;5.074;2023-03-01T07:48:30;10.50;;;8.75;;
18657;SDS011;9458;50.942;5.074;2023-03-01T07:50:58;12.07;;;8.60;;
18657;SDS011;9458;50.942;5.074;2023-03-01T07:53:26;10.85;;;8.98;;
18657;SDS011;9458;50.942;5.074;2023-03-01T07:55:59;10.15;;;8.23;;
18657;SDS011;9458;50.942;5.074;2023-03-01T07:58:28;9.85;;;8.68;;
18657;SDS011;9458;50.942;5.074;2023-03-01T08:01:00;10.85;;;9.38;;
18657;SDS011;9458;50.942;5.074;2023-03-01T08:03:28;9.60;;;8.45;;
18657;SDS011;9458;50.942;5.074;2023-03-01T08:05:58;10.48;;;9.30;;
18657;SDS011;9458;50.942;5.074;2023-03-01T08:08:27;10.55;;;8.80;;
18657;SDS011;9458;50.942;5.074;2023-03-01T08:10:56;11.27;;;9.48;;
18657;SDS011;9458;50.942;5.074;2023-03-01T08:13:25;12.05;;;8.93;;
18657;SDS011;9458;50.942;5.074;2023-03-01T08:15:59;10.15;;;9.13;;
18657;SDS011;9458;50.942;5.074;2023-03-01T08:18:29;12.43;;;9.35;;
18657;SDS011;9458;50.942;5.074;2023-03-01T08:21:00;10.05;;;9.05;;
18657;SDS011;9458;50.942;5.074;2023-03-01T08:23:29;10.57;;;9.57;;
18657;SDS011;9458;50.942;5.074;2023-03-01T08:26:04;11.00;;;9.40;;
18657;SDS011;9458;50.942;5.074;2023-03-01T08:28:35;10.75;;;9.65;;
18657;SDS011;9458;50.942;5.074;2023-03-01T08:31:04;11.98;;;9.27;;
18657;SDS011;9458;50.942;5.074;2023-03-01T08:33:42;10.25;;;9.23;;
18657;SDS011;9458;50.942;5.074;2023-03-01T08:36:15;10.25;;;9.25;;
18657;SDS011;9458;50.942;5.074;2023-03-01T08:38:44;10.98;;;9.95;;
18657;SDS011;9458;50.942;5.074;2023-03-01T08:41:14;9.77;;;8.88;;
18657;SDS011;9458;50.942;5.074;2023-03-01T08:43:42;10.68;;;9.52;;
18657;SDS011;9458;50.942;5.074;2023-03-01T08:46:12;11.57;;;9.68;;
18657;SDS011;9458;50.942;5.074;2023-03-01T08:48:40;11.52;;;10.38;;
18657;SDS011;9458;50.942;5.074;2023-03-01T08:51:09;10.52;;;9.52;;
18657;SDS011;9458;50.942;5.074;2023-03-01T08:53:39;11.15;;;10.05;;
18657;SDS011;9458;50.942;5.074;2023-03-01T08:56:07;10.98;;;9.88;;
18657;SDS011;9458;50.942;5.074;2023-03-01T08:58:35;10.32;;;9.25;;
18657;SDS011;9458;50.942;5.074;2023-03-01T09:01:06;13.13;;;9.80;;
18657;SDS011;9458;50.942;5.074;2023-03-01T09:03:37;10.65;;;9.70;;
18657;SDS011;9458;50.942;5.074;2023-03-01T09:06:05;10.98;;;9.85;;
18657;SDS011;9458;50.942;5.074;2023-03-01T09:08:34;12.18;;;10.38;;
18657;SDS011;9458;50.942;5.074;2023-03-01T09:11:02;10.57;;;9.57;;
18657;SDS011;9458;50.942;5.074;2023-03-01T09:13:30;12.25;;;11.07;;
18657;SDS011;9458;50.942;5.074;2023-03-01T09:16:00;12.32;;;11.13;;
18657;SDS011;9458;50.942;5.074;2023-03-01T09:18:29;11.10;;;10.02;;
18657;SDS011;9458;50.942;5.074;2023-03-01T09:21:03;10.77;;;9.70;;
18657;SDS011;9458;50.942;5.074;2023-03-01T09:23:34;11.00;;;10.00;;
18657;SDS011;9458;50.942;5.074;2023-03-01T09:26:04;12.25;;;9.77;;
18657;SDS011;9458;50.942;5.074;2023-03-01T09:28:32;10.45;;;9.45;;
18657;SDS011;9458;50.942;5.074;2023-03-01T09:31:00;10.43;;;9.40;;
18657;SDS011;9458;50.942;5.074;2023-03-01T09:33:29;10.60;;;9.70;;
18657;SDS011;9458;50.942;5.074;2023-03-01T09:35:58;10.52;;;9.63;;
18657;SDS011;9458;50.942;5.074;2023-03-01T09:38:28;10.75;;;9.82;;
18657;SDS011;9458;50.942;5.074;2023-03-01T09:40:56;10.88;;;9.98;;
18657;SDS011;9458;50.942;5.074;2023-03-01T09:43:26;11.13;;;10.13;;
18657;SDS011;9458;50.942;5.074;2023-03-01T09:46:00;11.10;;;10.10;;
18657;SDS011;9458;50.942;5.074;2023-03-01T09:48:39;11.38;;;10.27;;
18657;SDS011;9458;50.942;5.074;2023-03-01T09:51:12;12.13;;;10.40;;
18657;SDS011;9458;50.942;5.074;2023-03-01T09:53:46;11.57;;;10.48;;
18657;SDS011;9458;50.942;5.074;2023-03-01T09:56:16;11.60;;;10.50;;
18657;SDS011;9458;50.942;5.074;2023-03-01T09:58:49;11.55;;;10.32;;
18657;SDS011;9458;50.942;5.074;2023-03-01T10:01:30;10.90;;;9.80;;
18657;SDS011;9458;50.942;5.074;2023-03-01T10:04:12;12.18;;;10.88;;
18657;SDS011;9458;50.942;5.074;2023-03-01T10:07:07;11.98;;;10.65;;
18657;SDS011;9458;50.942;5.074;2023-03-01T10:09:50;12.35;;;10.73;;
18657;SDS011;9458;50.942;5.074;2023-03-01T10:12:18;11.75;;;10.48;;
18657;SDS011;9458;50.942;5.074;2023-03-01T10:14:51;13.68;;;10.30;;
18657;SDS011;9458;50.942;5.074;2023-03-01T10:17:26;14.18;;;10.57;;
18657;SDS011;9458;50.942;5.074;2023-03-01T10:20:05;13.07;;;9.88;;
18657;SDS011;9458;50.942;5.074;2023-03-01T10:22:43;15.00;;;9.57;;
18657;SDS011;9458;50.942;5.074;2023-03-01T10:25:20;13.27;;;9.52;;
18657;SDS011;9458;50.942;5.074;2023-03-01T10:28:00;12.57;;;9.13;;
18657;SDS011;9458;50.942;5.074;2023-03-01T10:30:36;16.83;;;9.38;;
18657;SDS011;9458;50.942;5.074;2023-03-01T10:33:10;14.35;;;9.48;;
18657;SDS011;9458;50.942;5.074;2023-03-01T10:35:43;12.65;;;8.77;;
18657;SDS011;9458;50.942;5.074;2023-03-01T10:38:14;13.75;;;8.77;;
18657;SDS011;9458;50.942;5.074;2023-03-01T10:40:52;15.38;;;8.95;;
18657;SDS011;9458;50.942;5.074;2023-03-01T10:43:22;11.90;;;7.43;;
18657;SDS011;9458;50.942;5.074;2023-03-01T10:45:51;13.82;;;8.20;;
18657;SDS011;9458;50.942;5.074;2023-03-01T10:48:20;14.10;;;8.32;;
18657;SDS011;9458;50.942;5.074;2023-03-01T10:51:04;13.70;;;8.40;;
18657;SDS011;9458;50.942;5.074;2023-03-01T10:53:34;12.35;;;7.95;;
18657;SDS011;9458;50.942;5.074;2023-03-01T10:56:09;13.07;;;7.75;;
18657;SDS011;9458;50.942;5.074;2023-03-01T10:58:39;13.45;;;8.15;;
18657;SDS011;9458;50.942;5.074;2023-03-01T11:01:26;13.10;;;8.13;;
18657;SDS011;9458;50.942;5.074;2023-03-01T11:04:10;12.00;;;8.10;;
18657;SDS011;9458;50.942;5.074;2023-03-01T11:06:40;15.10;;;8.63;;
18657;SDS011;9458;50.942;5.074;2023-03-01T11:09:16;11.80;;;7.80;;
18657;SDS011;9458;50.942;5.074;2023-03-01T11:11:47;14.50;;;9.60;;
18657;SDS011;9458;50.942;5.074;2023-03-01T11:14:20;14.97;;;8.57;;
18657;SDS011;9458;50.942;5.074;2023-03-01T11:16:58;16.13;;;9.93;;
18657;SDS011;9458;50.942;5.074;2023-03-01T11:19:29;17.83;;;10.50;;
18657;SDS011;9458;50.942;5.074;2023-03-01T11:21:58;14.20;;;10.25;;
18657;SDS011;9458;50.942;5.074;2023-03-01T11:24:31;16.10;;;10.77;;
18657;SDS011;9458;50.942;5.074;2023-03-01T11:27:06;17.88;;;11.27;;
18657;SDS011;9458;50.942;5.074;2023-03-01T11:29:43;22.00;;;13.30;;
18657;SDS011;9458;50.942;5.074;2023-03-01T11:32:16;20.02;;;13.93;;
18657;SDS011;9458;50.942;5.074;2023-03-01T11:34:47;20.20;;;13.40;;
18657;SDS011;9458;50.942;5.074;2023-03-01T11:37:26;24.52;;;15.75;;
18657;SDS011;9458;50.942;5.074;2023-03-01T11:40:04;24.63;;;14.83;;
18657;SDS011;9458;50.942;5.074;2023-03-01T11:42:43;20.30;;;13.85;;
18657;SDS011;9458;50.942;5.074;2023-03-01T11:45:18;17.60;;;11.80;;
18657;SDS011;9458;50.942;5.074;2023-03-01T11:47:55;15.43;;;10.02;;
18657;SDS011;9458;50.942;5.074;2023-03-01T11:50:35;19.17;;;12.60;;
18657;SDS011;9458;50.942;5.074;2023-03-01T11:53:13;24.03;;;15.60;;
18657;SDS011;9458;50.942;5.074;2023-03-01T11:56:00;24.10;;;15.17;;
18657;SDS011;9458;50.942;5.074;2023-03-01T11:58:41;14.57;;;9.17;;
18657;SDS011;9458;50.942;5.074;2023-03-01T12:01:25;16.10;;;10.27;;
18657;SDS011;9458;50.942;5.074;2023-03-01T12:04:08;18.20;;;10.87;;
18657;SDS011;9458;50.942;5.074;2023-03-01T12:06:57;16.03;;;9.50;;
18657;SDS011;9458;50.942;5.074;2023-03-01T12:09:31;11.97;;;8.63;;
18657;SDS011;9458;50.942;5.074;2023-03-01T12:12:18;14.67;;;8.83;;
18657;SDS011;9458;50.942;5.074;2023-03-01T12:15:21;12.50;;;8.27;;
18657;SDS011;9458;50.942;5.074;2023-03-01T12:18:23;14.43;;;8.53;;
18657;SDS011;9458;50.942;5.074;2023-03-01T12:21:03;16.83;;;9.93;;
18657;SDS011;9458;50.942;5.074;2023-03-01T12:23:53;13.03;;;8.57;;
18657;SDS011;9458;50.942;5.074;2023-03-01T12:26:47;13.60;;;7.97;;
18657;SDS011;9458;50.942;5.074;2023-03-01T12:29:25;12.80;;;7.93;;
18657;SDS011;9458;50.942;5.074;2023-03-01T12:34:49;13.07;;;7.47;;
18657;SDS011;9458;50.942;5.074;2023-03-01T12:37:44;12.63;;;7.70;;
18657;SDS011;9458;50.942;5.074;2023-03-01T12:40:27;11.10;;;7.50;;
18657;SDS011;9458;50.942;5.074;2023-03-01T12:43:22;11.63;;;7.43;;
18657;SDS011;9458;50.942;5.074;2023-03-01T12:46:01;12.80;;;7.00;;
18657;SDS011;9458;50.942;5.074;2023-03-01T12:48:46;14.50;;;8.10;;
18657;SDS011;9458;50.942;5.074;2023-03-01T12:51:21;12.40;;;7.73;;
18657;SDS011;9458;50.942;5.074;2023-03-01T12:53:51;11.37;;;7.30;;
18657;SDS011;9458;50.942;5.074;2023-03-01T12:56:22;15.17;;;7.60;;
18657;SDS011;9458;50.942;5.074;2023-03-01T12:58:54;13.60;;;7.93;;
18657;SDS011;9458;50.942;5.074;2023-03-01T13:01:35;13.73;;;7.90;;
18657;SDS011;9458;50.942;5.074;2023-03-01T13:04:12;11.87;;;7.50;;
18657;SDS011;9458;50.942;5.074;2023-03-01T13:06:49;12.07;;;7.90;;
18657;SDS011;9458;50.942;5.074;2023-03-01T13:09:24;11.87;;;7.40;;
18657;SDS011;9458;50.942;5.074;2023-03-01T13:11:55;12.50;;;7.27;;
18657;SDS011;9458;50.942;5.074;2023-03-01T13:14:34;13.03;;;7.30;;
18657;SDS011;9458;50.942;5.074;2023-03-01T13:17:03;13.30;;;7.13;;
18657;SDS011;9458;50.942;5.074;2023-03-01T13:19:32;13.30;;;7.97;;
18657;SDS011;9458;50.942;5.074;2023-03-01T13:22:25;11.50;;;7.27;;
18657;SDS011;9458;50.942;5.074;2023-03-01T13:25:00;10.70;;;7.30;;
18657;SDS011;9458;50.942;5.074;2023-03-01T13:27:29;11.70;;;7.77;;
18657;SDS011;9458;50.942;5.074;2023-03-01T13:29:58;10.53;;;7.23;;
18657;SDS011;9458;50.942;5.074;2023-03-01T13:32:31;11.70;;;8.03;;
18657;SDS011;9458;50.942;5.074;2023-03-01T13:35:01;13.97;;;8.07;;
18657;SDS011;9458;50.942;5.074;2023-03-01T13:37:34;13.17;;;8.63;;
18657;SDS011;9458;50.942;5.074;2023-03-01T13:40:56;10.40;;;7.63;;
18657;SDS011;9458;50.942;5.074;2023-03-01T13:43:29;10.80;;;6.67;;
18657;SDS011;9458;50.942;5.074;2023-03-01T13:45:59;12.47;;;7.60;;
18657;SDS011;9458;50.942;5.074;2023-03-01T13:48:29;12.07;;;8.00;;
18657;SDS011;9458;50.942;5.074;2023-03-01T13:51:00;13.77;;;8.27;;
18657;SDS011;9458;50.942;5.074;2023-03-01T13:53:31;13.07;;;8.60;;
18657;SDS011;9458;50.942;5.074;2023-03-01T13:56:06;13.03;;;8.20;;
18657;SDS011;9458;50.942;5.074;2023-03-01T13:58:44;13.57;;;7.77;;
18657;SDS011;9458;50.942;5.074;2023-03-01T14:01:25;13.40;;;8.03;;
18657;SDS011;9458;50.942;5.074;2023-03-01T14:03:55;13.93;;;8.23;;
18657;SDS011;9458;50.942;5.074;2023-03-01T14:06:27;13.17;;;8.67;;
18657;SDS011;9458;50.942;5.074;2023-03-01T14:09:02;15.07;;;8.60;;
18657;SDS011;9458;50.942;5.074;2023-03-01T14:14:30;15.73;;;8.65;;
18657;SDS011;9458;50.942;5.074;2023-03-01T14:17:24;11.80;;;7.73;;
18657;SDS011;9458;50.942;5.074;2023-03-01T14:20:08;11.87;;;8.03;;
18657;SDS011;9458;50.942;5.074;2023-03-01T14:22:41;12.60;;;7.85;;
18657;SDS011;9458;50.942;5.074;2023-03-01T14:25:19;11.93;;;7.75;;
18657;SDS011;9458;50.942;5.074;2023-03-01T14:27:56;14.80;;;8.53;;
18657;SDS011;9458;50.942;5.074;2023-03-01T14:30:27;14.23;;;8.27;;
18657;SDS011;9458;50.942;5.074;2023-03-01T14:33:00;12.60;;;8.23;;
18657;SDS011;9458;50.942;5.074;2023-03-01T14:35:29;9.70;;;7.33;;
18657;SDS011;9458;50.942;5.074;2023-03-01T14:37:59;12.43;;;8.07;;
18657;SDS011;9458;50.942;5.074;2023-03-01T14:40:29;10.97;;;7.73;;
18657;SDS011;9458;50.942;5.074;2023-03-01T14:42:59;12.98;;;8.38;;
18657;SDS011;9458;50.942;5.074;2023-03-01T14:45:29;10.97;;;7.60;;
18657;SDS011;9458;50.942;5.074;2023-03-01T14:47:58;12.13;;;8.10;;
18657;SDS011;9458;50.942;5.074;2023-03-01T14:50:28;14.88;;;8.20;;
18657;SDS011;9458;50.942;5.074;2023-03-01T14:52:58;14.73;;;8.32;;
18657;SDS011;9458;50.942;5.074;2023-03-01T14:55:31;16.23;;;7.60;;
18657;SDS011;9458;50.942;5.074;2023-03-01T14:58:02;9.70;;;7.43;;
18657;SDS011;9458;50.942;5.074;2023-03-01T15:00:32;10.93;;;7.40;;
18657;SDS011;9458;50.942;5.074;2023-03-01T15:03:11;8.73;;;6.43;;
18657;SDS011;9458;50.942;5.074;2023-03-01T15:05:45;11.05;;;6.85;;
18657;SDS011;9458;50.942;5.074;2023-03-01T15:08:17;9.97;;;6.90;;
18657;SDS011;9458;50.942;5.074;2023-03-01T15:10:58;10.00;;;7.20;;
18657;SDS011;9458;50.942;5.074;2023-03-01T15:13:29;11.53;;;7.37;;
18657;SDS011;9458;50.942;5.074;2023-03-01T15:16:02;7.93;;;6.13;;
18657;SDS011;9458;50.942;5.074;2023-03-01T15:18:34;13.23;;;7.03;;
18657;SDS011;9458;50.942;5.074;2023-03-01T15:21:05;10.33;;;6.87;;
18657;SDS011;9458;50.942;5.074;2023-03-01T15:23:36;10.87;;;6.67;;
18657;SDS011;9458;50.942;5.074;2023-03-01T15:26:06;11.27;;;6.87;;
18657;SDS011;9458;50.942;5.074;2023-03-01T15:28:49;11.30;;;7.10;;
18657;SDS011;9458;50.942;5.074;2023-03-01T15:31:20;10.82;;;6.72;;